sensor_id;sensor_type;location;lat;lon;timestamp;temperature;humidity
67358;HTU21D;54240;51.096;5.878;2022-09-25T00:00:58;12.27;118.99
67358;HTU21D;54240;51.096;5.878;2022-09-25T00:03:26;12.29;118.99
67358;HTU21D;54240;51.096;5.878;2022-09-25T00:06:00;12.22;118.99
67358;HTU21D;54240;51.096;5.878;2022-09-25T00:08:26;12.30;118.99
67358;HTU21D;54240;51.096;5.878;2022-09-25T00:10:52;12.36;118.99
67358;HTU21D;54240;51.096;5.878;2022-09-25T00:13:19;12.31;118.99
67358;HTU21D;54240;51.096;5.878;2022-09-25T00:15:56;12.23;118.99
67358;HTU21D;54240;51.096;5.878;2022-09-25T00:18:24;12.23;118.99
67358;HTU21D;54240;51.096;5.878;2022-09-25T00:21:12;12.19;118.99
67358;HTU21D;54240;51.096;5.878;2022-09-25T00:23:40;12.27;118.99
67358;HTU21D;54240;51.096;5.878;2022-09-25T00:26:07;12.32;118.99
67358;HTU21D;54240;51.096;5.878;2022-09-25T00:28:38;12.36;118.99
67358;HTU21D;54240;51.096;5.878;2022-09-25T00:31:07;12.29;118.99
67358;HTU21D;54240;51.096;5.878;2022-09-25T00:33:34;12.28;118.99
67358;HTU21D;54240;51.096;5.878;2022-09-25T00:36:05;12.34;118.99
67358;HTU21D;54240;51.096;5.878;2022-09-25T00:38:34;12.36;118.99
67358;HTU21D;54240;51.096;5.878;2022-09-25T00:41:01;12.42;118.99
67358;HTU21D;54240;51.096;5.878;2022-09-25T00:43:37;12.30;118.99
67358;HTU21D;54240;51.096;5.878;2022-09-25T00:46:15;12.36;118.99
67358;HTU21D;54240;51.096;5.878;2022-09-25T00:49:01;12.38;118.99
67358;HTU21D;54240;51.096;5.878;2022-09-25T00:51:35;12.37;118.99
67358;HTU21D;54240;51.096;5.878;2022-09-25T00:54:10;12.41;118.99
67358;HTU21D;54240;51.096;5.878;2022-09-25T00:56:42;12.43;118.99
67358;HTU21D;54240;51.096;5.878;2022-09-25T00:59:18;12.45;118.99
67358;HTU21D;54240;51.096;5.878;2022-09-25T01:01:46;12.52;118.99
67358;HTU21D;54240;51.096;5.878;2022-09-25T01:04:13;12.56;118.99
67358;HTU21D;54240;51.096;5.878;2022-09-25T01:06:39;12.50;118.99
67358;HTU21D;54240;51.096;5.878;2022-09-25T01:09:05;12.52;118.99
67358;HTU21D;54240;51.096;5.878;2022-09-25T01:11:31;12.48;118.99
67358;HTU21D;54240;51.096;5.878;2022-09-25T01:14:02;12.52;118.99
67358;HTU21D;54240;51.096;5.878;2022-09-25T01:16:49;12.61;118.99
67358;HTU21D;54240;51.096;5.878;2022-09-25T01:30:41;12.64;118.99
67358;HTU21D;54240;51.096;5.878;2022-09-25T01:33:16;12.67;118.99
67358;HTU21D;54240;51.096;5.878;2022-09-25T01:35:51;12.58;118.99
67358;HTU21D;54240;51.096;5.878;2022-09-25T01:41:16;12.56;118.99
67358;HTU21D;54240;51.096;5.878;2022-09-25T01:43:59;12.51;118.99
67358;HTU21D;54240;51.096;5.878;2022-09-25T01:46:33;12.46;118.99
67358;HTU21D;54240;51.096;5.878;2022-09-25T01:49:21;12.49;118.99
67358;HTU21D;54240;51.096;5.878;2022-09-25T01:51:52;12.45;118.99
67358;HTU21D;54240;51.096;5.878;2022-09-25T01:54:41;12.42;118.99
67358;HTU21D;54240;51.096;5.878;2022-09-25T01:57:21;12.43;118.99
67358;HTU21D;54240;51.096;5.878;2022-09-25T02:00:07;12.38;118.99
67358;HTU21D;54240;51.096;5.878;2022-09-25T02:02:56;12.41;118.99
67358;HTU21D;54240;51.096;5.878;2022-09-25T02:05:31;12.42;118.99
67358;HTU21D;54240;51.096;5.878;2022-09-25T02:08:21;12.45;118.99
67358;HTU21D;54240;51.096;5.878;2022-09-25T02:10:53;12.38;118.99
67358;HTU21D;54240;51.096;5.878;2022-09-25T02:13:24;12.40;118.99
67358;HTU21D;54240;51.096;5.878;2022-09-25T02:15:55;12.42;118.99
67358;HTU21D;54240;51.096;5.878;2022-09-25T02:18:23;12.43;118.99
67358;HTU21D;54240;51.096;5.878;2022-09-25T02:24:27;12.32;118.99
67358;HTU21D;54240;51.096;5.878;2022-09-25T02:26:55;12.28;118.99
67358;HTU21D;54240;51.096;5.878;2022-09-25T02:29:21;12.34;118.99
67358;HTU21D;54240;51.096;5.878;2022-09-25T02:34:22;12.34;118.99
67358;HTU21D;54240;51.096;5.878;2022-09-25T02:36:48;12.30;118.99
67358;HTU21D;54240;51.096;5.878;2022-09-25T02:39:19;12.22;118.99
67358;HTU21D;54240;51.096;5.878;2022-09-25T02:56:49;12.37;118.99
67358;HTU21D;54240;51.096;5.878;2022-09-25T02:59:26;12.38;118.99
67358;HTU21D;54240;51.096;5.878;2022-09-25T03:01:56;12.40;118.99
67358;HTU21D;54240;51.096;5.878;2022-09-25T03:04:26;12.37;118.99
67358;HTU21D;54240;51.096;5.878;2022-09-25T03:06:55;12.41;118.99
67358;HTU21D;54240;51.096;5.878;2022-09-25T03:09:23;12.42;118.99
67358;HTU21D;54240;51.096;5.878;2022-09-25T03:11:50;12.42;118.99
67358;HTU21D;54240;51.096;5.878;2022-09-25T03:14:16;12.38;118.99
67358;HTU21D;54240;51.096;5.878;2022-09-25T03:16:59;12.33;118.99
67358;HTU21D;54240;51.096;5.878;2022-09-25T03:19:27;12.30;118.99
67358;HTU21D;54240;51.096;5.878;2022-09-25T03:21:54;12.27;118.99
67358;HTU21D;54240;51.096;5.878;2022-09-25T03:24:20;12.26;118.99
67358;HTU21D;54240;51.096;5.878;2022-09-25T03:26:47;12.23;118.99
67358;HTU21D;54240;51.096;5.878;2022-09-25T03:29:14;12.25;118.99
67358;HTU21D;54240;51.096;5.878;2022-09-25T03:31:42;12.29;118.99
67358;HTU21D;54240;51.096;5.878;2022-09-25T03:34:08;12.25;118.99
67358;HTU21D;54240;51.096;5.878;2022-09-25T03:36:34;12.23;118.99
67358;HTU21D;54240;51.096;5.878;2022-09-25T03:39:01;12.26;118.99
67358;HTU21D;54240;51.096;5.878;2022-09-25T03:41:29;12.31;118.99
67358;HTU21D;54240;51.096;5.878;2022-09-25T03:43:56;12.30;118.99
67358;HTU21D;54240;51.096;5.878;2022-09-25T03:46:34;12.30;118.99
67358;HTU21D;54240;51.096;5.878;2022-09-25T03:49:01;12.26;118.99
67358;HTU21D;54240;51.096;5.878;2022-09-25T03:51:29;12.26;118.99
67358;HTU21D;54240;51.096;5.878;2022-09-25T03:53:56;12.28;118.99
67358;HTU21D;54240;51.096;5.878;2022-09-25T03:56:25;12.28;118.99
67358;HTU21D;54240;51.096;5.878;2022-09-25T03:58:52;12.29;118.99
67358;HTU21D;54240;51.096;5.878;2022-09-25T04:01:19;12.29;118.99
67358;HTU21D;54240;51.096;5.878;2022-09-25T04:03:46;12.27;118.99
67358;HTU21D;54240;51.096;5.878;2022-09-25T04:06:14;12.23;118.99
67358;HTU21D;54240;51.096;5.878;2022-09-25T04:08:46;12.22;118.99
67358;HTU21D;54240;51.096;5.878;2022-09-25T04:11:13;12.23;118.99
67358;HTU21D;54240;51.096;5.878;2022-09-25T04:13:39;12.23;118.99
67358;HTU21D;54240;51.096;5.878;2022-09-25T04:16:06;12.22;118.99
67358;HTU21D;54240;51.096;5.878;2022-09-25T04:18:33;12.21;118.99
67358;HTU21D;54240;51.096;5.878;2022-09-25T04:21:04;12.22;118.99
67358;HTU21D;54240;51.096;5.878;2022-09-25T04:23:31;12.20;118.99
67358;HTU21D;54240;51.096;5.878;2022-09-25T04:26:01;12.18;118.99
67358;HTU21D;54240;51.096;5.878;2022-09-25T04:28:27;12.14;118.99
67358;HTU21D;54240;51.096;5.878;2022-09-25T04:30:54;12.08;118.99
67358;HTU21D;54240;51.096;5.878;2022-09-25T04:33:20;12.10;118.99
67358;HTU21D;54240;51.096;5.878;2022-09-25T04:36:05;12.04;118.99
67358;HTU21D;54240;51.096;5.878;2022-09-25T04:38:31;12.05;118.99
67358;HTU21D;54240;51.096;5.878;2022-09-25T04:40:58;12.04;118.99
67358;HTU21D;54240;51.096;5.878;2022-09-25T04:43:30;11.98;118.99
67358;HTU21D;54240;51.096;5.878;2022-09-25T04:46:07;11.91;118.99
67358;HTU21D;54240;51.096;5.878;2022-09-25T04:48:34;11.92;118.99
67358;HTU21D;54240;51.096;5.878;2022-09-25T04:51:00;11.88;118.99
67358;HTU21D;54240;51.096;5.878;2022-09-25T04:53:28;11.83;118.99
67358;HTU21D;54240;51.096;5.878;2022-09-25T04:56:02;11.77;118.99
67358;HTU21D;54240;51.096;5.878;2022-09-25T04:58:28;11.74;118.99
67358;HTU21D;54240;51.096;5.878;2022-09-25T05:00:54;11.68;118.99
67358;HTU21D;54240;51.096;5.878;2022-09-25T05:03:20;11.62;118.99
67358;HTU21D;54240;51.096;5.878;2022-09-25T05:05:45;11.52;118.99
67358;HTU21D;54240;51.096;5.878;2022-09-25T05:08:11;11.47;118.99
67358;HTU21D;54240;51.096;5.878;2022-09-25T05:10:37;11.41;118.99
67358;HTU21D;54240;51.096;5.878;2022-09-25T05:13:06;11.39;118.99
67358;HTU21D;54240;51.096;5.878;2022-09-25T05:15:34;11.40;118.99
67358;HTU21D;54240;51.096;5.878;2022-09-25T05:18:06;11.32;118.99
67358;HTU21D;54240;51.096;5.878;2022-09-25T05:20:34;11.32;118.99
67358;HTU21D;54240;51.096;5.878;2022-09-25T05:23:00;11.31;118.99
67358;HTU21D;54240;51.096;5.878;2022-09-25T05:25:28;11.30;118.99
67358;HTU21D;54240;51.096;5.878;2022-09-25T05:27:57;11.31;118.99
67358;HTU21D;54240;51.096;5.878;2022-09-25T05:30:28;11.27;118.99
67358;HTU21D;54240;51.096;5.878;2022-09-25T05:32:55;11.26;118.99
67358;HTU21D;54240;51.096;5.878;2022-09-25T05:35:25;11.23;118.99
67358;HTU21D;54240;51.096;5.878;2022-09-25T05:37:52;11.18;118.99
67358;HTU21D;54240;51.096;5.878;2022-09-25T05:40:20;11.15;118.99
67358;HTU21D;54240;51.096;5.878;2022-09-25T05:42:46;11.11;118.99
67358;HTU21D;54240;51.096;5.878;2022-09-25T05:45:13;11.09;118.99
67358;HTU21D;54240;51.096;5.878;2022-09-25T05:47:42;11.07;118.99
67358;HTU21D;54240;51.096;5.878;2022-09-25T05:50:11;11.03;118.99
67358;HTU21D;54240;51.096;5.878;2022-09-25T05:52:38;10.98;118.99
67358;HTU21D;54240;51.096;5.878;2022-09-25T05:55:06;10.98;118.99
67358;HTU21D;54240;51.096;5.878;2022-09-25T05:57:34;10.96;118.99
67358;HTU21D;54240;51.096;5.878;2022-09-25T06:00:05;10.98;118.99
67358;HTU21D;54240;51.096;5.878;2022-09-25T06:02:37;10.97;118.99
67358;HTU21D;54240;51.096;5.878;2022-09-25T06:05:03;10.96;118.99
67358;HTU21D;54240;51.096;5.878;2022-09-25T06:07:29;10.96;118.99
67358;HTU21D;54240;51.096;5.878;2022-09-25T06:09:55;10.98;118.99
67358;HTU21D;54240;51.096;5.878;2022-09-25T06:12:21;10.99;118.99
67358;HTU21D;54240;51.096;5.878;2022-09-25T06:14:50;11.03;118.99
67358;HTU21D;54240;51.096;5.878;2022-09-25T06:17:17;11.07;118.99
67358;HTU21D;54240;51.096;5.878;2022-09-25T06:19:43;11.11;118.99
67358;HTU21D;54240;51.096;5.878;2022-09-25T06:22:09;11.15;118.99
67358;HTU21D;54240;51.096;5.878;2022-09-25T06:24:34;11.20;118.99
67358;HTU21D;54240;51.096;5.878;2022-09-25T06:27:00;11.26;118.99
67358;HTU21D;54240;51.096;5.878;2022-09-25T06:29:26;11.32;118.99
67358;HTU21D;54240;51.096;5.878;2022-09-25T06:31:52;11.36;118.99
67358;HTU21D;54240;51.096;5.878;2022-09-25T06:34:18;11.43;118.99
67358;HTU21D;54240;51.096;5.878;2022-09-25T06:36:44;11.53;118.99
67358;HTU21D;54240;51.096;5.878;2022-09-25T06:39:09;11.60;118.99
67358;HTU21D;54240;51.096;5.878;2022-09-25T06:41:35;11.68;118.99
67358;HTU21D;54240;51.096;5.878;2022-09-25T06:44:01;11.79;118.99
67358;HTU21D;54240;51.096;5.878;2022-09-25T06:46:27;11.91;118.99
67358;HTU21D;54240;51.096;5.878;2022-09-25T06:48:55;12.00;118.99
67358;HTU21D;54240;51.096;5.878;2022-09-25T06:51:23;12.05;118.99
67358;HTU21D;54240;51.096;5.878;2022-09-25T06:53:53;12.11;118.99
67358;HTU21D;54240;51.096;5.878;2022-09-25T06:56:20;12.19;118.99
67358;HTU21D;54240;51.096;5.878;2022-09-25T06:58:46;12.25;118.99
67358;HTU21D;54240;51.096;5.878;2022-09-25T07:01:12;12.28;118.99
67358;HTU21D;54240;51.096;5.878;2022-09-25T07:03:39;12.33;118.99
67358;HTU21D;54240;51.096;5.878;2022-09-25T07:06:17;12.36;118.99
67358;HTU21D;54240;51.096;5.878;2022-09-25T07:08:44;12.38;118.99
67358;HTU21D;54240;51.096;5.878;2022-09-25T07:11:14;12.33;118.99
67358;HTU21D;54240;51.096;5.878;2022-09-25T07:13:41;12.41;118.99
67358;HTU21D;54240;51.096;5.878;2022-09-25T07:16:12;12.61;118.99
67358;HTU21D;54240;51.096;5.878;2022-09-25T07:18:38;12.91;118.99
67358;HTU21D;54240;51.096;5.878;2022-09-25T07:21:08;13.24;118.99
67358;HTU21D;54240;51.096;5.878;2022-09-25T07:23:35;13.53;118.99
67358;HTU21D;54240;51.096;5.878;2022-09-25T07:26:07;13.91;118.99
67358;HTU21D;54240;51.096;5.878;2022-09-25T07:28:35;14.34;118.99
67358;HTU21D;54240;51.096;5.878;2022-09-25T07:31:12;14.69;118.99
67358;HTU21D;54240;51.096;5.878;2022-09-25T07:33:38;14.87;118.99
67358;HTU21D;54240;51.096;5.878;2022-09-25T07:36:04;15.12;118.99
67358;HTU21D;54240;51.096;5.878;2022-09-25T07:38:31;15.23;118.99
67358;HTU21D;54240;51.096;5.878;2022-09-25T07:40:59;15.21;118.99
67358;HTU21D;54240;51.096;5.878;2022-09-25T07:43:24;15.23;118.99
67358;HTU21D;54240;51.096;5.878;2022-09-25T07:45:50;15.43;118.99
67358;HTU21D;54240;51.096;5.878;2022-09-25T07:48:19;15.31;118.99
67358;HTU21D;54240;51.096;5.878;2022-09-25T07:50:46;15.66;118.99
67358;HTU21D;54240;51.096;5.878;2022-09-25T07:53:15;15.47;118.99
67358;HTU21D;54240;51.096;5.878;2022-09-25T07:55:45;15.46;118.99
67358;HTU21D;54240;51.096;5.878;2022-09-25T07:58:13;15.65;118.99
67358;HTU21D;54240;51.096;5.878;2022-09-25T08:00:39;15.76;118.99
67358;HTU21D;54240;51.096;5.878;2022-09-25T08:03:07;15.88;118.99
67358;HTU21D;54240;51.096;5.878;2022-09-25T08:05:33;15.80;118.99
67358;HTU21D;54240;51.096;5.878;2022-09-25T08:07:59;16.00;118.99
67358;HTU21D;54240;51.096;5.878;2022-09-25T08:10:25;16.18;118.99
67358;HTU21D;54240;51.096;5.878;2022-09-25T08:12:51;16.10;118.99
67358;HTU21D;54240;51.096;5.878;2022-09-25T08:15:17;16.06;118.99
67358;HTU21D;54240;51.096;5.878;2022-09-25T08:17:43;16.18;118.99
67358;HTU21D;54240;51.096;5.878;2022-09-25T08:20:09;16.31;118.99
67358;HTU21D;54240;51.096;5.878;2022-09-25T08:22:35;16.27;118.99
67358;HTU21D;54240;51.096;5.878;2022-09-25T08:25:01;16.45;118.99
67358;HTU21D;54240;51.096;5.878;2022-09-25T08:27:28;16.36;118.99
67358;HTU21D;54240;51.096;5.878;2022-09-25T08:29:54;16.50;118.99
67358;HTU21D;54240;51.096;5.878;2022-09-25T08:32:20;16.90;118.99
67358;HTU21D;54240;51.096;5.878;2022-09-25T08:34:46;17.37;118.99
67358;HTU21D;54240;51.096;5.878;2022-09-25T08:37:12;17.66;118.99
67358;HTU21D;54240;51.096;5.878;2022-09-25T08:39:38;17.81;118.99
67358;HTU21D;54240;51.096;5.878;2022-09-25T08:42:04;18.08;118.99
67358;HTU21D;54240;51.096;5.878;2022-09-25T08:44:41;18.10;118.99
67358;HTU21D;54240;51.096;5.878;2022-09-25T08:47:21;17.81;118.99
67358;HTU21D;54240;51.096;5.878;2022-09-25T08:50:21;17.63;118.99
67358;HTU21D;54240;51.096;5.878;2022-09-25T08:53:05;17.63;118.99
67358;HTU21D;54240;51.096;5.878;2022-09-25T08:55:38;17.78;118.99
67358;HTU21D;54240;51.096;5.878;2022-09-25T08:58:30;17.90;110.20
67358;HTU21D;54240;51.096;5.878;2022-09-25T09:01:04;17.76;104.98
67358;HTU21D;54240;51.096;5.878;2022-09-25T09:03:42;17.54;104.14
67358;HTU21D;54240;51.096;5.878;2022-09-25T09:06:14;18.12;96.61
67358;HTU21D;54240;51.096;5.878;2022-09-25T09:08:46;18.53;113.13
67358;HTU21D;54240;51.096;5.878;2022-09-25T09:11:31;18.98;102.90
67358;HTU21D;54240;51.096;5.878;2022-09-25T09:14:05;19.25;94.44
67358;HTU21D;54240;51.096;5.878;2022-09-25T09:16:50;19.60;83.69
67358;HTU21D;54240;51.096;5.878;2022-09-25T09:19:19;19.36;67.62
67358;HTU21D;54240;51.096;5.878;2022-09-25T09:22:11;19.41;49.76
67358;HTU21D;54240;51.096;5.878;2022-09-25T09:30:12;19.36;46.62
67358;HTU21D;54240;51.096;5.878;2022-09-25T09:41:24;19.25;36.95
67358;HTU21D;54240;51.096;5.878;2022-09-25T09:44:08;18.89;35.89
67358;HTU21D;54240;51.096;5.878;2022-09-25T09:49:32;18.95;21.30
67358;HTU21D;54240;51.096;5.878;2022-09-25T09:54:47;19.31;32.32
67358;HTU21D;54240;51.096;5.878;2022-09-25T09:57:24;18.70;27.84
67358;HTU21D;54240;51.096;5.878;2022-09-25T09:59:55;18.21;27.94
67358;HTU21D;54240;51.096;5.878;2022-09-25T10:02:27;17.75;27.72
67358;HTU21D;54240;51.096;5.878;2022-09-25T10:04:54;17.83;34.34
67358;HTU21D;54240;51.096;5.878;2022-09-25T10:07:22;17.62;31.05
67358;HTU21D;54240;51.096;5.878;2022-09-25T10:09:52;17.50;27.52
67358;HTU21D;54240;51.096;5.878;2022-09-25T10:12:29;17.68;36.60
67358;HTU21D;54240;51.096;5.878;2022-09-25T10:15:18;18.35;28.29
67358;HTU21D;54240;51.096;5.878;2022-09-25T10:17:45;19.23;33.09
67358;HTU21D;54240;51.096;5.878;2022-09-25T10:20:21;19.86;3.23
67358;HTU21D;54240;51.096;5.878;2022-09-25T10:22:52;20.10;-1.79
67358;HTU21D;54240;51.096;5.878;2022-09-25T10:25:35;20.33;7.35
67358;HTU21D;54240;51.096;5.878;2022-09-25T10:28:30;20.31;-6.00
67358;HTU21D;54240;51.096;5.878;2022-09-25T10:30:58;19.69;-6.00
67358;HTU21D;54240;51.096;5.878;2022-09-25T10:33:29;19.33;-6.00
67358;HTU21D;54240;51.096;5.878;2022-09-25T10:35:55;19.29;-6.00
67358;HTU21D;54240;51.096;5.878;2022-09-25T10:38:37;18.85;-6.00
67358;HTU21D;54240;51.096;5.878;2022-09-25T10:41:12;19.13;-6.00
67358;HTU21D;54240;51.096;5.878;2022-09-25T10:46:31;20.20;-6.00
67358;HTU21D;54240;51.096;5.878;2022-09-25T10:49:22;20.37;-6.00
67358;HTU21D;54240;51.096;5.878;2022-09-25T10:52:09;20.60;-6.00
67358;HTU21D;54240;51.096;5.878;2022-09-25T10:54:36;19.96;-6.00
67358;HTU21D;54240;51.096;5.878;2022-09-25T10:57:29;19.36;-6.00
67358;HTU21D;54240;51.096;5.878;2022-09-25T11:00:02;18.89;-6.00
67358;HTU21D;54240;51.096;5.878;2022-09-25T11:02:39;18.24;-6.00
67358;HTU21D;54240;51.096;5.878;2022-09-25T11:05:15;18.23;-6.00
67358;HTU21D;54240;51.096;5.878;2022-09-25T11:07:52;18.32;-6.00
67358;HTU21D;54240;51.096;5.878;2022-09-25T11:10:33;18.86;-6.00
67358;HTU21D;54240;51.096;5.878;2022-09-25T11:13:08;19.05;-6.00
67358;HTU21D;54240;51.096;5.878;2022-09-25T11:15:35;19.60;-6.00
67358;HTU21D;54240;51.096;5.878;2022-09-25T11:18:04;20.42;-6.00
67358;HTU21D;54240;51.096;5.878;2022-09-25T11:20:31;20.45;-6.00
67358;HTU21D;54240;51.096;5.878;2022-09-25T11:25:43;19.97;-6.00
67358;HTU21D;54240;51.096;5.878;2022-09-25T11:28:21;19.37;-6.00
67358;HTU21D;54240;51.096;5.878;2022-09-25T11:31:00;19.07;-6.00
67358;HTU21D;54240;51.096;5.878;2022-09-25T11:33:55;18.71;-6.00
67358;HTU21D;54240;51.096;5.878;2022-09-25T11:36:32;18.67;-6.00
67358;HTU21D;54240;51.096;5.878;2022-09-25T11:39:04;18.89;-6.00
67358;HTU21D;54240;51.096;5.878;2022-09-25T11:42:04;19.35;-6.00
67358;HTU21D;54240;51.096;5.878;2022-09-25T11:44:49;19.76;-6.00
67358;HTU21D;54240;51.096;5.878;2022-09-25T11:49:58;20.42;-6.00
67358;HTU21D;54240;51.096;5.878;2022-09-25T11:58:21;21.98;-6.00
67358;HTU21D;54240;51.096;5.878;2022-09-25T12:12:10;21.83;-6.00
67358;HTU21D;54240;51.096;5.878;2022-09-25T12:15:04;20.99;-6.00
67358;HTU21D;54240;51.096;5.878;2022-09-25T12:23:32;19.72;-6.00
67358;HTU21D;54240;51.096;5.878;2022-09-25T12:34:33;19.09;-6.00
67358;HTU21D;54240;51.096;5.878;2022-09-25T12:39:58;19.13;-6.00
67358;HTU21D;54240;51.096;5.878;2022-09-25T12:45:11;19.63;-6.00
67358;HTU21D;54240;51.096;5.878;2022-09-25T12:47:44;19.79;-6.00
67358;HTU21D;54240;51.096;5.878;2022-09-25T12:50:27;19.85;-6.00
67358;HTU21D;54240;51.096;5.878;2022-09-25T12:55:46;19.60;-6.00
67358;HTU21D;54240;51.096;5.878;2022-09-25T12:58:44;19.52;-6.00
67358;HTU21D;54240;51.096;5.878;2022-09-25T13:01:31;19.47;-6.00
67358;HTU21D;54240;51.096;5.878;2022-09-25T13:04:42;19.76;-6.00
67358;HTU21D;54240;51.096;5.878;2022-09-25T13:07:32;20.17;-6.00
67358;HTU21D;54240;51.096;5.878;2022-09-25T13:10:05;20.75;-6.00
67358;HTU21D;54240;51.096;5.878;2022-09-25T13:12:37;20.92;-6.00
67358;HTU21D;54240;51.096;5.878;2022-09-25T13:15:14;20.98;-6.00
67358;HTU21D;54240;51.096;5.878;2022-09-25T13:17:42;21.11;-6.00
67358;HTU21D;54240;51.096;5.878;2022-09-25T13:23:38;20.48;-6.00
67358;HTU21D;54240;51.096;5.878;2022-09-25T13:26:17;19.94;-6.00
67358;HTU21D;54240;51.096;5.878;2022-09-25T13:29:01;19.72;-6.00
67358;HTU21D;54240;51.096;5.878;2022-09-25T13:31:31;19.48;-6.00
67358;HTU21D;54240;51.096;5.878;2022-09-25T13:36:50;18.52;-6.00
67358;HTU21D;54240;51.096;5.878;2022-09-25T13:39:40;17.93;-6.00
67358;HTU21D;54240;51.096;5.878;2022-09-25T13:42:29;17.66;-6.00
67358;HTU21D;54240;51.096;5.878;2022-09-25T13:50:37;17.99;-6.00
67358;HTU21D;54240;51.096;5.878;2022-09-25T14:03:36;18.13;-6.00
67358;HTU21D;54240;51.096;5.878;2022-09-25T14:06:10;18.08;-6.00
67358;HTU21D;54240;51.096;5.878;2022-09-25T14:08:40;17.94;-6.00
67358;HTU21D;54240;51.096;5.878;2022-09-25T14:11:11;17.90;-6.00
67358;HTU21D;54240;51.096;5.878;2022-09-25T14:13:38;17.98;-6.00
67358;HTU21D;54240;51.096;5.878;2022-09-25T14:18:47;18.53;-6.00
67358;HTU21D;54240;51.096;5.878;2022-09-25T14:21:18;18.84;-6.00
67358;HTU21D;54240;51.096;5.878;2022-09-25T14:23:52;19.27;-6.00
67358;HTU21D;54240;51.096;5.878;2022-09-25T14:26:25;19.54;-6.00
67358;HTU21D;54240;51.096;5.878;2022-09-25T14:28:56;19.51;-6.00
67358;HTU21D;54240;51.096;5.878;2022-09-25T14:37:08;19.51;-6.00
67358;HTU21D;54240;51.096;5.878;2022-09-25T14:42:46;20.03;-6.00
67358;HTU21D;54240;51.096;5.878;2022-09-25T14:47:58;20.13;-6.00
67358;HTU21D;54240;51.096;5.878;2022-09-25T14:50:33;20.05;-6.00
67358;HTU21D;54240;51.096;5.878;2022-09-25T14:53:05;20.05;-6.00
67358;HTU21D;54240;51.096;5.878;2022-09-25T14:55:43;20.06;-6.00
67358;HTU21D;54240;51.096;5.878;2022-09-25T14:58:17;19.86;-6.00
67358;HTU21D;54240;51.096;5.878;2022-09-25T15:00:46;19.74;-6.00
67358;HTU21D;54240;51.096;5.878;2022-09-25T15:03:16;19.57;-6.00
67358;HTU21D;54240;51.096;5.878;2022-09-25T15:05:48;19.37;-6.00
67358;HTU21D;54240;51.096;5.878;2022-09-25T15:08:27;19.13;-6.00
67358;HTU21D;54240;51.096;5.878;2022-09-25T15:11:11;18.99;-6.00
67358;HTU21D;54240;51.096;5.878;2022-09-25T15:13:38;18.72;-6.00
67358;HTU21D;54240;51.096;5.878;2022-09-25T15:16:06;18.58;-6.00
67358;HTU21D;54240;51.096;5.878;2022-09-25T15:18:58;18.18;-6.00
67358;HTU21D;54240;51.096;5.878;2022-09-25T15:23:52;17.72;-6.00
67358;HTU21D;54240;51.096;5.878;2022-09-25T15:26:19;17.62;-6.00
67358;HTU21D;54240;51.096;5.878;2022-09-25T15:28:46;17.60;-6.00
67358;HTU21D;54240;51.096;5.878;2022-09-25T15:31:12;17.58;-6.00
67358;HTU21D;54240;51.096;5.878;2022-09-25T15:33:39;17.58;-6.00
67358;HTU21D;54240;51.096;5.878;2022-09-25T15:36:18;17.69;-6.00
67358;HTU21D;54240;51.096;5.878;2022-09-25T15:38:56;17.90;-6.00
67358;HTU21D;54240;51.096;5.878;2022-09-25T15:41:25;18.15;-6.00
67358;HTU21D;54240;51.096;5.878;2022-09-25T15:44:16;18.18;-6.00
67358;HTU21D;54240;51.096;5.878;2022-09-25T15:46:47;18.15;-6.00
67358;HTU21D;54240;51.096;5.878;2022-09-25T15:49:17;17.94;-6.00
67358;HTU21D;54240;51.096;5.878;2022-09-25T15:52:10;17.64;-6.00
67358;HTU21D;54240;51.096;5.878;2022-09-25T15:54:44;17.56;-6.00
67358;HTU21D;54240;51.096;5.878;2022-09-25T15:57:31;17.40;-6.00
67358;HTU21D;54240;51.096;5.878;2022-09-25T16:00:04;17.31;-6.00
67358;HTU21D;54240;51.096;5.878;2022-09-25T16:02:58;17.29;-6.00
67358;HTU21D;54240;51.096;5.878;2022-09-25T16:05:47;17.23;-6.00
67358;HTU21D;54240;51.096;5.878;2022-09-25T16:08:25;17.21;-6.00
67358;HTU21D;54240;51.096;5.878;2022-09-25T16:11:22;17.09;-6.00
67358;HTU21D;54240;51.096;5.878;2022-09-25T16:13:53;16.98;-6.00
67358;HTU21D;54240;51.096;5.878;2022-09-25T16:16:45;16.81;-5.46
67358;HTU21D;54240;51.096;5.878;2022-09-25T16:21:50;16.54;18.56
67358;HTU21D;54240;51.096;5.878;2022-09-25T16:24:19;16.47;30.35
67358;HTU21D;54240;51.096;5.878;2022-09-25T16:26:52;16.43;37.40
67358;HTU21D;54240;51.096;5.878;2022-09-25T16:29:32;16.41;44.84
67358;HTU21D;54240;51.096;5.878;2022-09-25T16:32:02;16.41;54.11
67358;HTU21D;54240;51.096;5.878;2022-09-25T16:34:33;16.39;64.33
67358;HTU21D;54240;51.096;5.878;2022-09-25T16:37:02;16.35;72.81
67358;HTU21D;54240;51.096;5.878;2022-09-25T16:39:35;16.33;77.79
67358;HTU21D;54240;51.096;5.878;2022-09-25T16:42:27;16.29;85.42
67358;HTU21D;54240;51.096;5.878;2022-09-25T16:45:25;16.24;97.23
67358;HTU21D;54240;51.096;5.878;2022-09-25T16:47:56;16.19;103.46
67358;HTU21D;54240;51.096;5.878;2022-09-25T16:50:28;16.13;106.15
67358;HTU21D;54240;51.096;5.878;2022-09-25T16:52:58;16.04;106.38
67358;HTU21D;54240;51.096;5.878;2022-09-25T16:55:26;15.93;102.66
67358;HTU21D;54240;51.096;5.878;2022-09-25T16:57:55;15.85;101.60
67358;HTU21D;54240;51.096;5.878;2022-09-25T17:00:24;15.83;100.40
67358;HTU21D;54240;51.096;5.878;2022-09-25T17:02:52;15.76;99.41
67358;HTU21D;54240;51.096;5.878;2022-09-25T17:05:24;15.80;96.34
67358;HTU21D;54240;51.096;5.878;2022-09-25T17:07:55;15.82;92.63
67358;HTU21D;54240;51.096;5.878;2022-09-25T17:10:25;15.85;89.15
67358;HTU21D;54240;51.096;5.878;2022-09-25T17:12:53;15.85;88.80
67358;HTU21D;54240;51.096;5.878;2022-09-25T17:15:24;15.84;90.53
67358;HTU21D;54240;51.096;5.878;2022-09-25T17:17:54;15.82;92.63
67358;HTU21D;54240;51.096;5.878;2022-09-25T17:20:24;15.84;93.85
67358;HTU21D;54240;51.096;5.878;2022-09-25T17:22:52;15.88;97.15
67358;HTU21D;54240;51.096;5.878;2022-09-25T17:28:07;15.88;97.61
67358;HTU21D;54240;51.096;5.878;2022-09-25T17:30:34;15.87;99.00
67358;HTU21D;54240;51.096;5.878;2022-09-25T17:33:00;15.85;98.51
67358;HTU21D;54240;51.096;5.878;2022-09-25T17:35:43;15.74;94.96
67358;HTU21D;54240;51.096;5.878;2022-09-25T17:38:10;15.69;95.08
67358;HTU21D;54240;51.096;5.878;2022-09-25T17:40:44;15.66;96.68
67358;HTU21D;54240;51.096;5.878;2022-09-25T17:43:12;15.66;95.56
67358;HTU21D;54240;51.096;5.878;2022-09-25T17:45:47;15.62;94.51
67358;HTU21D;54240;51.096;5.878;2022-09-25T17:48:17;15.47;90.77
67358;HTU21D;54240;51.096;5.878;2022-09-25T17:50:55;15.41;93.12
67358;HTU21D;54240;51.096;5.878;2022-09-25T17:53:24;15.38;92.69
67358;HTU21D;54240;51.096;5.878;2022-09-25T17:55:52;15.33;93.63
67358;HTU21D;54240;51.096;5.878;2022-09-25T17:58:18;15.30;94.69
67358;HTU21D;54240;51.096;5.878;2022-09-25T18:00:44;15.26;94.41
67358;HTU21D;54240;51.096;5.878;2022-09-25T18:03:11;15.18;95.37
67358;HTU21D;54240;51.096;5.878;2022-09-25T18:05:37;15.13;97.22